Time;durP1;ratioP1;P1;durP2;ratioP2;P2;SDS_P1;SDS_P2;PMS_P1;PMS_P2;Temp;Humidity;BMP_temperature;BMP_pressure;BME280_temperature;BME280_humidity;BME280_pressure;Samples;Min_cycle;Max_cycle;Signal;HPM_P1;HPM_P2
2023/09/06 00:00:31;;;;;;;19.70;6.70;;;;;;;20.19;67.79;100931.19;5094954;28;20246;-46
2023/09/06 00:02:58;;;;;;;18.23;5.35;;;;;;;20.25;66.70;100935.56;5094694;28;20480;-49
2023/09/06 00:05:24;;;;;;;20.05;6.45;;;;;;;20.19;67.17;100925.75;5094984;28;20127;-47
2023/09/06 00:07:51;;;;;;;17.70;6.18;;;;;;;19.93;67.89;100943.06;5091155;28;20070;-48
2023/09/06 00:10:17;;;;;;;22.13;7.10;;;;;;;19.45;69.53;100934.94;5089727;28;20031;-46
2023/09/06 00:12:45;;;;;;;12.88;5.80;;;;;;;19.24;70.58;100936.69;5075977;28;20031;-48
2023/09/06 00:15:12;;;;;;;15.32;6.22;;;;;;;19.30;70.60;100931.31;5085260;28;20032;-48
2023/09/06 00:17:41;;;;;;;16.08;5.60;;;;;;;19.23;71.09;100932.34;5094356;28;20115;-46
2023/09/06 00:22:53;;;;;;;19.65;6.30;;;;;;;19.22;71.03;100924.50;5094643;28;20107;-48
2023/09/06 00:25:19;;;;;;;19.05;6.78;;;;;;;19.08;71.89;100926.81;5095072;28;20511;-48
2023/09/06 00:27:46;;;;;;;16.52;6.75;;;;;;;19.00;72.39;100921.88;5094941;28;20028;-45
2023/09/06 00:30:12;;;;;;;17.60;6.30;;;;;;;19.24;71.51;100944.84;5095084;28;20030;-48
2023/09/06 00:32:38;;;;;;;17.05;6.32;;;;;;;19.07;71.75;100925.19;5094881;28;20160;-47
2023/09/06 00:35:05;;;;;;;17.38;6.75;;;;;;;18.67;73.42;100929.22;5091218;28;20032;-44
2023/09/06 00:37:39;;;;;;;16.15;7.22;;;;;;;18.48;75.36;100936.03;5080687;28;20035;-45
2023/09/06 00:40:14;;;;;;;23.30;7.30;;;;;;;18.79;74.91;100936.34;5093919;28;20384;-46
2023/09/06 00:42:40;;;;;;;20.10;6.05;;;;;;;18.81;74.38;100934.19;5094422;28;20071;-46
2023/09/06 00:45:07;;;;;;;16.65;6.28;;;;;;;18.71;74.06;100933.06;5094460;28;20040;-48
2023/09/06 00:47:33;;;;;;;20.42;7.53;;;;;;;18.27;75.55;100921.47;5095041;28;20028;-46
2023/09/06 00:50:00;;;;;;;22.77;7.78;;;;;;;18.26;76.05;100929.84;5094981;28;20423;-47
2023/09/06 00:52:26;;;;;;;31.45;7.95;;;;;;;17.86;76.87;100925.59;5093520;28;20047;-46
2023/09/06 00:54:52;;;;;;;17.35;7.53;;;;;;;17.76;78.20;100925.47;5092292;28;20082;-48
2023/09/06 00:57:19;;;;;;;17.70;7.07;;;;;;;17.94;77.60;100931.41;5094235;28;20488;-46
2023/09/06 00:59:48;;;;;;;20.40;6.32;;;;;;;17.84;78.04;100927.75;5094050;28;20035;-49
2023/09/06 01:02:14;;;;;;;16.17;7.07;;;;;;;17.83;78.32;100932.34;5094207;28;20119;-48
2023/09/06 01:04:41;;;;;;;17.52;6.90;;;;;;;17.67;78.34;100928.59;5093949;28;20032;-49
2023/09/06 01:07:10;;;;;;;22.38;7.30;;;;;;;17.38;80.34;100930.63;5094745;28;20107;-48
2023/09/06 01:09:36;;;;;;;22.52;8.73;;;;;;;17.50;80.41;100935.13;5086886;28;20582;-47
2023/09/06 01:12:02;;;;;;;18.60;7.35;;;;;;;17.55;80.13;100924.38;5081609;28;20085;-46
2023/09/06 01:14:29;;;;;;;19.00;7.65;;;;;;;17.58;80.60;100926.56;5093565;28;20028;-45
2023/09/06 01:16:55;;;;;;;20.52;7.80;;;;;;;17.72;79.47;100930.59;5089197;28;20045;-46
2023/09/06 01:19:25;;;;;;;18.73;7.90;;;;;;;17.42;80.01;100928.22;5093736;28;20031;-48
2023/09/06 01:22:10;;;;;;;22.02;6.85;;;;;;;17.39;80.32;100923.34;5093546;28;20032;-45
2023/09/06 01:24:37;;;;;;;24.43;7.70;;;;;;;17.38;80.83;100925.22;5072132;28;20052;-48
2023/09/06 01:27:05;;;;;;;18.15;7.07;;;;;;;17.54;80.00;100931.66;5092168;28;20488;-45
2023/09/06 01:29:32;;;;;;;22.45;7.38;;;;;;;17.47;80.28;100925.59;5093330;28;20035;-48
2023/09/06 01:31:58;;;;;;;25.30;7.93;;;;;;;17.27;81.24;100925.34;5079171;28;20027;-47
2023/09/06 01:34:24;;;;;;;21.73;7.38;;;;;;;17.15;82.39;100933.50;5081065;28;20093;-47
2023/09/06 01:36:51;;;;;;;27.98;8.45;;;;;;;17.02;83.01;100926.56;5088583;28;20104;-48
2023/09/06 01:39:17;;;;;;;21.25;7.88;;;;;;;17.08;83.23;100920.16;5081403;28;20059;-46
2023/09/06 01:41:43;;;;;;;25.38;7.70;;;;;;;17.11;83.67;100918.88;5090686;28;20400;-46
2023/09/06 01:44:09;;;;;;;23.58;7.65;;;;;;;17.04;84.19;100924.41;5093043;28;20032;-49
2023/09/06 01:46:35;;;;;;;22.55;7.82;;;;;;;17.13;83.88;100919.44;5093118;28;20024;-47
2023/09/06 01:49:02;;;;;;;21.90;7.38;;;;;;;16.92;84.44;100915.59;5090598;28;20024;-49
2023/09/06 01:51:31;;;;;;;26.05;8.50;;;;;;;17.01;84.63;100922.22;5092864;28;20369;-48
2023/09/06 01:53:57;;;;;;;29.98;8.93;;;;;;;16.79;84.79;100919.44;5092861;28;20090;-49
2023/09/06 01:56:23;;;;;;;22.17;7.63;;;;;;;16.68;85.57;100920.31;5092870;28;20031;-48
2023/09/06 01:58:50;;;;;;;22.38;7.85;;;;;;;16.68;85.29;100919.50;5092477;28;20092;-48
2023/09/06 02:01:16;;;;;;;23.88;7.30;;;;;;;16.46;86.39;100916.66;5092279;28;20024;-42
2023/09/06 02:03:42;;;;;;;25.08;8.00;;;;;;;16.32;87.30;100924.25;5079045;28;20067;-46
2023/09/06 02:06:09;;;;;;;26.00;8.25;;;;;;;16.33;87.71;100915.09;5084699;28;20043;-46
2023/09/06 02:08:35;;;;;;;16.90;7.57;;;;;;;16.29;87.54;100911.22;5093621;28;20416;-48
2023/09/06 02:11:01;;;;;;;26.98;8.68;;;;;;;16.05;89.20;100907.81;5093206;28;20028;-45
2023/09/06 02:13:28;;;;;;;21.15;8.77;;;;;;;16.04;89.94;100906.97;5092370;28;20481;-45
2023/09/06 02:15:55;;;;;;;33.42;9.75;;;;;;;15.91;91.50;100907.25;5092802;28;20035;-48
2023/09/06 02:18:21;;;;;;;27.15;8.10;;;;;;;15.98;91.07;100918.72;5093227;28;20024;-46
2023/09/06 02:20:49;;;;;;;30.42;8.00;;;;;;;16.04;91.17;100925.88;5093169;28;20426;-45
2023/09/06 02:23:15;;;;;;;24.45;8.60;;;;;;;16.21;90.81;100922.41;5092497;28;20099;-48
2023/09/06 02:25:45;;;;;;;22.52;8.20;;;;;;;16.08;90.75;100928.91;5092638;28;20067;-45
2023/09/06 02:28:11;;;;;;;28.17;9.52;;;;;;;16.12;91.12;100918.47;5093134;28;20034;-45
2023/09/06 02:30:37;;;;;;;31.55;9.00;;;;;;;15.95;91.41;100921.94;5092775;28;20032;-48
2023/09/06 02:33:04;;;;;;;24.13;8.00;;;;;;;15.84;91.33;100914.69;5092536;28;20468;-49
2023/09/06 02:35:35;;;;;;;30.67;9.20;;;;;;;15.70;92.15;100924.09;5091871;28;20391;-45
2023/09/06 02:38:01;;;;;;;25.08;9.50;;;;;;;15.62;93.13;100925.25;5093245;28;20093;-48
2023/09/06 02:40:27;;;;;;;24.95;8.45;;;;;;;15.65;92.41;100919.41;5085955;28;20036;-48
2023/09/06 02:42:54;;;;;;;22.35;9.10;;;;;;;15.59;93.26;100921.13;5092106;28;20388;-45
2023/09/06 02:45:22;;;;;;;22.92;8.43;;;;;;;15.51;93.97;100923.41;5092017;28;20483;-48
2023/09/06 02:47:52;;;;;;;22.25;8.60;;;;;;;15.54;93.49;100931.00;5092973;28;20387;-46
2023/09/06 02:50:24;;;;;;;22.00;8.55;;;;;;;15.53;93.76;100929.38;5092450;28;20476;-47
2023/09/06 02:52:52;;;;;;;20.55;8.38;;;;;;;15.70;93.37;100932.19;5084237;28;20028;-45
2023/09/06 02:55:19;;;;;;;19.80;8.38;;;;;;;15.59;93.71;100940.03;5083225;28;20023;-45
2023/09/06 02:57:45;;;;;;;25.92;9.98;;;;;;;15.59;93.99;100948.13;5092384;28;20052;-48
2023/09/06 03:00:25;;;;;;;18.48;7.25;;;;;;;15.64;93.82;100944.75;5092288;28;20480;-48
2023/09/06 03:03:10;;;;;;;23.00;7.50;;;;;;;15.72;93.23;100944.41;5091178;28;20063;-47
2023/09/06 03:05:43;;;;;;;18.23;7.45;;;;;;;15.62;93.80;100949.53;5092288;28;20024;-48
2023/09/06 03:08:12;;;;;;;31.05;9.23;;;;;;;15.47;94.00;100944.63;5091778;28;20028;-46
2023/09/06 03:10:40;;;;;;;25.38;8.65;;;;;;;15.53;94.30;100954.47;5091797;28;20099;-49
2023/09/06 03:13:09;;;;;;;20.55;7.80;;;;;;;15.51;94.92;100950.38;5091956;28;20016;-48
2023/09/06 03:15:35;;;;;;;26.08;9.23;;;;;;;15.39;95.88;100957.66;5091617;28;20476;-48
2023/09/06 03:18:02;;;;;;;28.27;9.07;;;;;;;15.37;96.33;100960.56;5091830;28;20027;-47
2023/09/06 03:20:45;;;;;;;28.60;9.10;;;;;;;15.51;95.62;100966.56;5091977;28;20031;-46
2023/09/06 03:23:19;;;;;;;24.20;9.05;;;;;;;15.43;95.60;100978.50;5092083;28;20032;-48
2023/09/06 03:25:50;;;;;;;21.85;7.25;;;;;;;15.58;94.26;100972.66;5092154;28;20139;-47
2023/09/06 03:28:21;;;;;;;21.45;8.57;;;;;;;15.52;94.85;100979.00;5092052;28;20119;-48
2023/09/06 03:30:49;;;;;;;19.77;7.30;;;;;;;15.36;96.07;100985.09;5092544;28;20101;-48
2023/09/06 03:33:15;;;;;;;20.25;7.47;;;;;;;15.61;94.99;100982.16;5092063;28;20610;-47
2023/09/06 03:35:45;;;;;;;23.85;8.13;;;;;;;15.69;94.03;100996.13;5092083;28;20032;-47
2023/09/06 03:38:15;;;;;;;21.52;8.10;;;;;;;15.72;93.82;100997.56;5092114;28;20058;-48
2023/09/06 03:40:42;;;;;;;25.90;8.55;;;;;;;15.61;94.20;100992.97;5091681;28;20471;-46
2023/09/06 03:43:15;;;;;;;25.27;8.13;;;;;;;15.56;94.44;100999.88;5075915;28;20028;-48
2023/09/06 03:45:51;;;;;;;23.13;8.05;;;;;;;15.69;93.95;101000.72;5084360;28;20090;-48
2023/09/06 03:48:20;;;;;;;23.05;8.02;;;;;;;15.61;93.90;101006.44;5091974;28;20594;-47
2023/09/06 03:50:51;;;;;;;17.42;6.68;;;;;;;15.58;94.09;101005.84;5091752;28;20028;-48
2023/09/06 03:53:18;;;;;;;18.13;7.65;;;;;;;15.34;94.90;101015.00;5091271;28;20032;-46
2023/09/06 03:55:46;;;;;;;18.10;7.35;;;;;;;15.49;94.46;101018.06;5091214;28;20079;-46
2023/09/06 03:58:12;;;;;;;24.73;7.32;;;;;;;15.61;93.70;101017.25;5091825;28;20051;-46
2023/09/06 04:00:45;;;;;;;24.23;8.02;;;;;;;15.64;93.18;101023.00;5091580;28;20032;-47
2023/09/06 04:03:12;;;;;;;19.50;8.00;;;;;;;15.64;93.61;101024.88;5091672;28;20373;-46
2023/09/06 04:05:40;;;;;;;16.90;7.45;;;;;;;15.54;93.51;101037.03;5091548;28;20493;-48
2023/09/06 04:08:07;;;;;;;22.60;7.75;;;;;;;15.58;93.43;101030.13;5089192;28;20109;-49
2023/09/06 04:10:38;;;;;;;27.83;9.68;;;;;;;15.50;94.33;101033.19;5072759;28;20052;-46
2023/09/06 04:13:06;;;;;;;18.63;8.20;;;;;;;15.67;93.44;101035.22;5071533;28;20036;-49
2023/09/06 04:15:36;;;;;;;22.30;7.55;;;;;;;15.57;93.87;101041.16;5071488;28;20490;-47
2023/09/06 04:18:05;;;;;;;27.83;8.20;;;;;;;15.63;93.42;101045.66;5071744;28;20036;-48
2023/09/06 04:20:35;;;;;;;19.05;7.80;;;;;;;15.50;94.62;101041.28;5071795;28;20020;-47
2023/09/06 04:23:06;;;;;;;27.75;8.05;;;;;;;15.51;94.33;101042.91;5071382;28;20118;-46
2023/09/06 04:25:44;;;;;;;30.40;9.35;;;;;;;15.59;94.15;101034.47;5071243;28;20052;-48
2023/09/06 04:28:12;;;;;;;19.80;8.52;;;;;;;15.35;95.45;101040.91;5076763;28;20304;-48
2023/09/06 04:30:42;;;;;;;19.60;7.93;;;;;;;15.61;94.27;101044.22;5080093;28;20025;-46
2023/09/06 04:33:14;;;;;;;20.83;7.15;;;;;;;15.62;93.65;101041.28;5075354;28;20028;-45
2023/09/06 04:35:46;;;;;;;23.45;8.95;;;;;;;15.61;93.81;101036.13;5095093;28;20535;-46
2023/09/06 04:38:17;;;;;;;25.60;9.68;;;;;;;15.54;94.25;101042.44;5094853;28;20024;-45
2023/09/06 04:40:44;;;;;;;24.00;9.52;;;;;;;15.70;93.42;101040.94;5095274;28;20040;-47
2023/09/06 04:43:11;;;;;;;22.58;9.25;;;;;;;15.59;93.41;101044.44;5094890;28;20034;-48
2023/09/06 04:45:38;;;;;;;25.33;9.60;;;;;;;15.54;93.98;101047.81;5094978;28;20028;-45
2023/09/06 04:48:08;;;;;;;28.77;9.75;;;;;;;15.71;93.10;101052.56;5083184;28;20489;-48
2023/09/06 04:50:44;;;;;;;23.52;9.00;;;;;;;15.61;93.59;101052.31;5074589;28;20043;-48
2023/09/06 04:53:13;;;;;;;25.60;9.40;;;;;;;15.56;93.48;101047.63;5074086;28;20052;-46
2023/09/06 04:55:40;;;;;;;16.35;8.23;;;;;;;15.64;93.94;101058.09;5075735;28;20495;-48
2023/09/06 04:58:08;;;;;;;24.65;8.98;;;;;;;15.64;93.94;101049.16;5075027;28;20060;-48
2023/09/06 05:00:41;;;;;;;21.02;9.10;;;;;;;15.61;94.19;101052.31;5074589;28;20024;-47
2023/09/06 05:03:10;;;;;;;26.70;9.60;;;;;;;15.55;94.57;101048.69;5086183;28;20023;-47
2023/09/06 05:05:38;;;;;;;18.02;8.52;;;;;;;15.56;95.26;101045.75;5094541;28;20476;-47
2023/09/06 05:08:05;;;;;;;19.63;8.77;;;;;;;15.63;94.03;101047.53;5094423;28;20097;-48
2023/09/06 05:10:35;;;;;;;26.48;9.85;;;;;;;15.65;94.48;101048.09;5094443;28;20636;-47
2023/09/06 05:13:02;;;;;;;26.83;9.63;;;;;;;15.62;94.39;101049.38;5088214;28;20093;-48
2023/09/06 05:15:28;;;;;;;23.38;9.63;;;;;;;15.52;95.00;101047.25;5093986;28;20468;-48
2023/09/06 05:17:54;;;;;;;27.55;9.60;;;;;;;15.52;95.60;101046.44;5094331;28;20027;-45
2023/09/06 05:20:35;;;;;;;19.58;7.65;;;;;;;15.66;94.46;101039.78;5094207;28;20429;-48
2023/09/06 05:23:09;;;;;;;23.30;8.05;;;;;;;15.83;93.29;101045.31;5094043;28;20121;-47
2023/09/06 05:25:36;;;;;;;27.73;8.20;;;;;;;15.87;93.05;101056.44;5092556;28;20131;-47
2023/09/06 05:28:05;;;;;;;24.08;9.10;;;;;;;15.81;93.44;101055.50;5094178;28;20059;-47
2023/09/06 05:30:34;;;;;;;28.50;8.30;;;;;;;15.69;94.28;101049.28;5094253;28;20031;-45
2023/09/06 05:33:00;;;;;;;24.60;9.38;;;;;;;15.56;95.41;101053.00;5093925;28;20473;-46
2023/09/06 05:35:27;;;;;;;25.83;9.25;;;;;;;15.56;95.09;101051.13;5090620;28;20032;-45
2023/09/06 05:37:54;;;;;;;25.88;9.00;;;;;;;15.71;93.89;101061.50;5093600;28;20035;-46
2023/09/06 05:40:23;;;;;;;19.65;8.73;;;;;;;15.66;93.55;101055.16;5094025;28;20472;-45
2023/09/06 05:42:50;;;;;;;30.05;10.30;;;;;;;15.52;94.53;101059.91;5093629;28;20039;-45
2023/09/06 05:45:19;;;;;;;31.73;10.45;;;;;;;15.27;96.84;101058.25;5093607;28;20036;-47
2023/09/06 05:47:45;;;;;;;24.10;9.40;;;;;;;15.48;95.17;101056.84;5092309;28;20028;-47
2023/09/06 05:50:12;;;;;;;23.15;10.05;;;;;;;15.50;95.12;101056.66;5093432;28;20063;-45
2023/09/06 05:52:38;;;;;;;25.30;9.57;;;;;;;15.50;95.46;101060.16;5093603;28;20045;-47
2023/09/06 05:55:06;;;;;;;30.85;10.23;;;;;;;15.30;96.08;101065.06;5093599;28;20028;-48
2023/09/06 05:57:33;;;;;;;17.08;8.85;;;;;;;15.42;94.85;101060.50;5093747;28;20028;-46
2023/09/06 06:00:00;;;;;;;27.35;9.48;;;;;;;15.29;95.73;101060.72;5093505;28;20085;-47
2023/09/06 06:02:26;;;;;;;33.40;10.20;;;;;;;15.18;96.56;101066.91;5093092;28;20050;-47
2023/09/06 06:04:52;;;;;;;28.70;9.20;;;;;;;15.42;94.90;101060.50;5077316;28;20358;-46
2023/09/06 06:07:21;;;;;;;23.17;10.38;;;;;;;15.21;95.82;101058.34;5073055;28;20029;-48
2023/09/06 06:09:48;;;;;;;19.15;8.68;;;;;;;15.33;95.77;101056.50;5073116;28;20077;-45
2023/09/06 06:12:22;;;;;;;23.05;9.45;;;;;;;15.29;96.07;101056.13;5072679;28;20039;-46
2023/09/06 06:14:53;;;;;;;19.48;7.65;;;;;;;15.30;96.28;101060.47;5076177;28;20037;-46
2023/09/06 06:17:20;;;;;;;28.42;8.98;;;;;;;15.16;97.00;101061.75;5072827;28;20115;-47
2023/09/06 06:19:49;;;;;;;24.75;7.45;;;;;;;15.30;96.39;101062.34;5073159;28;20036;-48
2023/09/06 06:22:15;;;;;;;23.35;7.85;;;;;;;15.24;96.17;101058.72;5072516;28;20040;-45
2023/09/06 06:24:45;;;;;;;21.52;8.40;;;;;;;15.28;96.29;101053.69;5072474;28;20079;-46
2023/09/06 06:27:12;;;;;;;22.80;7.88;;;;;;;15.32;95.90;101055.69;5072708;28;20021;-46
2023/09/06 06:29:38;;;;;;;28.98;7.43;;;;;;;15.38;95.89;101067.44;5072741;28;20495;-46
2023/09/06 06:32:05;;;;;;;18.48;7.68;;;;;;;15.23;97.22;101070.56;5072533;28;20089;-45
2023/09/06 06:34:32;;;;;;;25.15;7.10;;;;;;;15.37;95.99;101068.44;5072407;28;20025;-48
2023/09/06 06:36:58;;;;;;;21.33;7.63;;;;;;;15.20;97.18;101072.88;5072720;28;20028;-48
2023/09/06 06:39:24;;;;;;;22.73;7.40;;;;;;;15.35;96.91;101069.75;5089178;28;20073;-48
2023/09/06 06:41:50;;;;;;;18.23;6.90;;;;;;;15.41;96.72;101071.53;5092313;28;20115;-48
2023/09/06 06:44:16;;;;;;;21.27;6.88;;;;;;;15.30;97.09;101068.56;5092764;28;20118;-47
2023/09/06 06:46:43;;;;;;;19.13;6.72;;;;;;;15.30;96.99;101067.75;5093240;28;20047;-47
2023/09/06 06:49:09;;;;;;;16.70;6.22;;;;;;;15.40;96.18;101068.00;5092723;28;20020;-45
2023/09/06 06:51:41;;;;;;;18.65;7.05;;;;;;;15.34;96.59;101071.63;5089697;28;20032;-45
2023/09/06 06:54:14;;;;;;;17.40;7.05;;;;;;;15.36;96.71;101066.81;5073050;28;20031;-47
2023/09/06 06:56:41;;;;;;;20.60;6.38;;;;;;;15.52;96.04;101068.03;5072468;28;20074;-47
2023/09/06 06:59:08;;;;;;;26.25;7.93;;;;;;;15.47;96.35;101066.00;5072368;28;20024;-45
2023/09/06 07:01:35;;;;;;;24.98;8.55;;;;;;;15.39;96.58;101060.16;5071878;28;20465;-45
2023/09/06 07:04:05;;;;;;;18.52;6.72;;;;;;;15.35;96.29;101057.09;5078420;28;20024;-44
2023/09/06 07:06:32;;;;;;;19.40;7.90;;;;;;;15.36;95.62;101057.91;5071590;28;20050;-46
2023/09/06 07:08:59;;;;;;;20.63;6.57;;;;;;;15.25;97.03;101070.31;5071754;28;20044;-47
2023/09/06 07:11:25;;;;;;;23.73;8.15;;;;;;;15.18;97.59;101064.22;5071942;28;20369;-45
2023/09/06 07:13:52;;;;;;;19.45;7.35;;;;;;;15.31;97.08;101055.91;5071756;28;20093;-45
2023/09/06 07:16:20;;;;;;;19.25;7.20;;;;;;;15.36;97.48;101063.31;5072038;28;20047;-47
2023/09/06 07:18:47;;;;;;;22.70;8.15;;;;;;;15.45;96.86;101068.13;5071972;28;20098;-46
2023/09/06 07:21:15;;;;;;;25.38;7.88;;;;;;;15.41;97.16;101066.13;5071617;28;20031;-48
2023/09/06 07:23:41;;;;;;;20.25;6.95;;;;;;;15.45;96.64;101064.63;5071599;28;20385;-46
2023/09/06 07:26:08;;;;;;;19.65;7.70;;;;;;;15.44;96.19;101069.19;5071674;28;20029;-48
2023/09/06 07:28:40;;;;;;;22.30;7.93;;;;;;;15.34;97.42;101062.72;5074718;28;20314;-46
2023/09/06 07:31:07;;;;;;;15.73;7.00;;;;;;;15.26;97.95;101061.97;5071289;28;20020;-45
2023/09/06 07:33:34;;;;;;;22.45;7.35;;;;;;;15.17;98.62;101067.97;5071977;28;20104;-49
2023/09/06 07:36:00;;;;;;;19.40;7.57;;;;;;;15.24;97.65;101071.38;5071576;28;20035;-47
2023/09/06 07:38:27;;;;;;;16.85;6.13;;;;;;;15.38;96.98;101069.28;5071782;28;20020;-48
2023/09/06 07:41:03;;;;;;;12.30;5.63;;;;;;;15.38;96.49;101070.13;5074100;28;20120;-46
2023/09/06 07:43:30;;;;;;;20.08;7.15;;;;;;;15.31;96.08;101077.47;5087795;28;20035;-45
2023/09/06 07:45:57;;;;;;;16.33;7.43;;;;;;;15.29;96.38;101071.50;5092188;28;20036;-46
2023/09/06 07:48:31;;;;;;;17.35;6.78;;;;;;;15.30;96.32;101068.56;5091700;28;20020;-44
2023/09/06 07:50:59;;;;;;;20.65;7.32;;;;;;;15.19;96.97;101066.66;5091690;28;20055;-45
2023/09/06 07:53:26;;;;;;;20.25;7.60;;;;;;;15.29;95.78;101066.94;5091211;28;20066;-46
2023/09/06 07:55:53;;;;;;;20.83;7.45;;;;;;;15.17;96.96;101074.19;5069386;28;20119;-44
2023/09/06 07:58:20;;;;;;;29.02;8.48;;;;;;;15.03;97.66;101068.16;5078355;28;20412;-47
2023/09/06 08:00:47;;;;;;;16.75;7.78;;;;;;;15.01;97.88;101066.75;5091582;28;20028;-45
2023/09/06 08:03:14;;;;;;;17.60;7.60;;;;;;;15.21;97.06;101072.66;5095465;28;20066;-48
2023/09/06 08:05:41;;;;;;;15.63;7.10;;;;;;;15.31;96.31;101061.28;5095899;28;20036;-45
2023/09/06 08:08:09;;;;;;;20.40;8.13;;;;;;;15.19;97.22;101063.16;5095869;28;20031;-48
2023/09/06 08:10:36;;;;;;;20.85;8.13;;;;;;;15.17;97.33;101060.69;5095618;28;20031;-46
2023/09/06 08:13:04;;;;;;;22.08;7.97;;;;;;;15.26;97.41;101067.38;5095188;28;20024;-48
2023/09/06 08:15:34;;;;;;;27.30;8.90;;;;;;;15.10;98.49;101069.91;5095443;28;20032;-46
2023/09/06 08:18:03;;;;;;;32.40;8.98;;;;;;;15.17;99.03;101070.66;5075700;28;20143;-48
2023/09/06 08:20:30;;;;;;;28.67;8.30;;;;;;;15.13;99.35;101069.47;5075261;28;20028;-47
2023/09/06 08:22:56;;;;;;;19.40;7.72;;;;;;;15.10;99.00;101067.22;5074688;28;20021;-45
2023/09/06 08:25:22;;;;;;;20.98;7.45;;;;;;;15.12;98.67;101059.75;5074663;28;20083;-45
2023/09/06 08:27:50;;;;;;;20.52;7.97;;;;;;;15.19;98.11;101065.84;5074943;28;20024;-46
2023/09/06 08:30:18;;;;;;;31.95;8.63;;;;;;;15.04;98.79;101077.88;5074875;28;20408;-45
2023/09/06 08:32:46;;;;;;;20.33;9.27;;;;;;;15.13;98.89;101075.69;5074665;28;20030;-45
2023/09/06 08:35:12;;;;;;;26.38;8.77;;;;;;;15.13;99.19;101075.69;5074475;28;20389;-46
2023/09/06 08:37:40;;;;;;;23.95;9.55;;;;;;;15.01;99.91;101077.53;5074478;28;20035;-49
2023/09/06 08:40:07;;;;;;;17.05;8.35;;;;;;;15.00;99.39;101074.00;5074581;28;20111;-46
2023/09/06 08:42:39;;;;;;;31.55;8.63;;;;;;;15.15;98.83;101078.13;5074570;28;20060;-46
2023/09/06 08:45:09;;;;;;;20.65;7.60;;;;;;;15.14;99.41;101082.72;5074413;28;20056;-46
2023/09/06 08:47:39;;;;;;;19.02;7.93;;;;;;;15.09;99.39;101084.44;5074589;28;20381;-45
2023/09/06 08:50:10;;;;;;;22.77;8.93;;;;;;;15.12;100.00;101075.91;5085018;28;20028;-44
2023/09/06 08:52:41;;;;;;;22.58;8.07;;;;;;;15.10;100.00;101083.41;5094710;28;20052;-47
2023/09/06 08:55:12;;;;;;;16.98;7.70;;;;;;;15.20;99.87;101086.34;5094586;28;20039;-45
2023/09/06 08:57:40;;;;;;;14.80;7.00;;;;;;;15.26;99.54;101080.88;5094445;28;20028;-47
2023/09/06 09:00:11;;;;;;;19.38;6.72;;;;;;;15.18;99.49;101085.78;5094351;28;20027;-46
2023/09/06 09:02:40;;;;;;;22.98;7.50;;;;;;;15.27;98.56;101084.41;5094560;28;20032;-46
2023/09/06 09:05:08;;;;;;;18.63;7.93;;;;;;;15.17;99.43;101081.44;5094530;28;20039;-46
2023/09/06 09:07:36;;;;;;;21.77;7.80;;;;;;;15.33;98.34;101083.47;5094732;28;20099;-44
2023/09/06 09:10:09;;;;;;;18.77;8.27;;;;;;;15.45;97.20;101078.09;5094504;28;20107;-47
2023/09/06 09:12:38;;;;;;;23.73;8.52;;;;;;;15.34;97.14;101079.72;5094072;28;20055;-46
2023/09/06 09:15:05;;;;;;;18.52;7.10;;;;;;;15.52;96.32;101079.63;5094240;28;20115;-48
2023/09/06 09:17:33;;;;;;;18.60;7.43;;;;;;;15.47;96.76;101078.69;5094545;28;20073;-47
2023/09/06 09:20:00;;;;;;;16.48;6.88;;;;;;;15.49;96.39;101077.41;5094544;28;20035;-47
2023/09/06 09:22:36;;;;;;;21.85;6.88;;;;;;;15.43;95.54;101078.31;5093937;28;20114;-47
2023/09/06 09:25:04;;;;;;;17.50;6.38;;;;;;;15.54;95.31;101082.91;5093776;28;20052;-44
2023/09/06 09:27:32;;;;;;;14.02;6.57;;;;;;;15.49;95.74;101079.25;5094539;28;20164;-46
2023/09/06 09:30:02;;;;;;;18.00;6.30;;;;;;;15.48;96.40;101080.31;5094162;28;20023;-48
2023/09/06 09:32:30;;;;;;;17.42;7.28;;;;;;;15.54;95.48;101082.91;5093804;28;20050;-48
2023/09/06 09:34:56;;;;;;;16.73;6.63;;;;;;;15.48;95.73;101081.13;5093350;28;20454;-47
2023/09/06 09:37:23;;;;;;;12.93;6.28;;;;;;;15.48;95.23;101080.31;5094129;28;20109;-48
2023/09/06 09:39:49;;;;;;;17.00;7.68;;;;;;;15.65;94.03;101080.47;5093934;28;20118;-44
2023/09/06 09:42:16;;;;;;;17.17;7.15;;;;;;;15.58;93.24;101083.28;5093698;28;20052;-45
2023/09/06 09:44:42;;;;;;;14.45;5.63;;;;;;;15.48;94.35;101077.63;5093848;28;20062;-46
2023/09/06 09:47:13;;;;;;;23.23;6.90;;;;;;;15.64;93.53;101090.47;5093454;28;20032;-46
2023/09/06 09:49:41;;;;;;;14.05;6.20;;;;;;;15.66;93.53;101076.75;5094212;28;20426;-48
2023/09/06 09:52:17;;;;;;;19.85;6.93;;;;;;;15.67;92.61;101083.78;5093264;28;20069;-44
2023/09/06 09:54:47;;;;;;;18.33;6.85;;;;;;;15.43;93.89;101078.31;5090721;28;20032;-45
2023/09/06 09:57:15;;;;;;;12.38;5.45;;;;;;;15.53;92.77;101081.25;5072691;28;20044;-45
2023/09/06 09:59:43;;;;;;;14.77;6.47;;;;;;;15.56;92.50;101078.13;5072163;28;20031;-46
2023/09/06 10:02:15;;;;;;;17.13;7.32;;;;;;;15.26;94.67;101082.75;5072422;28;20404;-45
2023/09/06 10:04:42;;;;;;;16.30;6.82;;;;;;;15.35;94.24;101081.38;5080282;28;20522;-44
2023/09/06 10:07:11;;;;;;;16.55;6.97;;;;;;;15.51;93.10;101082.56;5093077;28;20032;-46
2023/09/06 10:09:44;;;;;;;19.08;7.03;;;;;;;15.52;93.28;101082.31;5092888;28;20025;-46
2023/09/06 10:12:11;;;;;;;20.48;7.50;;;;;;;15.37;93.92;101079.25;5078341;28;20664;-45
2023/09/06 10:14:40;;;;;;;18.83;6.90;;;;;;;15.43;93.99;101082.88;5085001;28;20370;-46
2023/09/06 10:17:07;;;;;;;16.92;6.68;;;;;;;15.40;93.80;101084.19;5076306;28;20016;-47
2023/09/06 10:19:36;;;;;;;16.92;6.53;;;;;;;15.48;93.18;101083.84;5092897;28;20363;-46
2023/09/06 10:22:04;;;;;;;14.93;6.40;;;;;;;15.44;93.40;101085.38;5092617;28;20028;-47
2023/09/06 10:24:38;;;;;;;13.00;6.78;;;;;;;15.38;93.88;101089.00;5091489;28;20507;-47
2023/09/06 10:27:13;;;;;;;17.30;6.15;;;;;;;15.46;93.00;101088.66;5092560;28;20051;-47
2023/09/06 10:29:55;;;;;;;;;;;;;;;15.28;93.62;101092.25;5085733;28;20039;-49
2023/09/06 10:32:22;;;;;;;18.52;6.88;;;;;;;15.31;93.48;101089.09;5074686;28;19985;-47
2023/09/06 10:35:23;;;;;;;17.45;6.40;;;;;;;15.36;93.62;101083.00;5078718;28;20505;-46
2023/09/06 10:38:02;;;;;;;15.25;6.93;;;;;;;15.30;93.39;101087.44;5072534;28;20583;-45
2023/09/06 10:40:49;;;;;;;18.30;6.65;;;;;;;15.35;92.89;101096.72;5071618;28;20028;-47
2023/09/06 10:43:28;;;;;;;15.60;5.88;;;;;;;15.26;92.66;101096.22;5071924;28;20034;-47
2023/09/06 10:45:55;;;;;;;18.48;6.20;;;;;;;15.32;92.69;101098.00;5072207;28;20028;-48
2023/09/06 10:48:22;;;;;;;19.30;6.40;;;;;;;15.37;92.64;101083.81;5071918;28;20025;-45
2023/09/06 10:51:08;;;;;;;18.80;7.03;;;;;;;15.33;93.08;101094.25;5078395;28;20024;-44
2023/09/06 10:53:36;;;;;;;16.75;6.60;;;;;;;15.41;92.73;101091.22;5091761;28;20031;-44
2023/09/06 10:56:06;;;;;;;18.85;6.95;;;;;;;15.41;92.52;101079.63;5092265;28;20035;-43
2023/09/06 10:58:37;;;;;;;13.27;5.97;;;;;;;15.45;91.77;101087.00;5091993;28;20092;-44
2023/09/06 11:01:13;;;;;;;17.55;6.32;;;;;;;15.24;92.86;101084.84;5091870;28;20024;-45
2023/09/06 11:03:46;;;;;;;22.58;6.90;;;;;;;15.29;92.37;101098.47;5092043;28;20028;-43
2023/09/06 11:06:12;;;;;;;15.90;6.65;;;;;;;15.22;92.86;101090.50;5091713;28;20030;-45
2023/09/06 11:08:38;;;;;;;18.85;6.72;;;;;;;15.37;92.21;101097.31;5091795;28;20020;-47
2023/09/06 11:11:10;;;;;;;15.60;6.32;;;;;;;15.23;92.51;101088.59;5091630;28;20030;-47
2023/09/06 11:13:38;;;;;;;18.52;6.72;;;;;;;15.47;90.88;101093.00;5091348;28;20031;-44
2023/09/06 11:16:10;;;;;;;20.33;7.20;;;;;;;15.28;91.25;101094.97;5090458;28;20028;-44
2023/09/06 11:18:47;;;;;;;23.17;6.93;;;;;;;15.38;91.55;101102.50;5091818;28;20100;-46
2023/09/06 11:21:22;;;;;;;23.20;7.10;;;;;;;15.35;91.49;101096.72;5091712;28;20114;-45
2023/09/06 11:23:51;;;;;;;22.83;7.22;;;;;;;15.28;92.05;101096.84;5091330;28;20020;-47
2023/09/06 11:26:19;;;;;;;19.50;6.47;;;;;;;15.31;91.28;101088.25;5085817;28;20032;-47